sensor_id;sensor_type;location;lat;lon;timestamp;pressure;altitude;pressure_sealevel;temperature;humidity
65227;BME280;51805;49.012;12.104;2023-02-26T00:02:19;97038.66;;;22.23;43.67
65227;BME280;51805;49.012;12.104;2023-02-26T00:04:44;97048.06;;;22.26;43.50
65227;BME280;51805;49.012;12.104;2023-02-26T00:07:09;97043.56;;;22.21;43.52
65227;BME280;51805;49.012;12.104;2023-02-26T00:09:34;97041.97;;;22.20;43.74
65227;BME280;51805;49.012;12.104;2023-02-26T00:12:00;97048.69;;;22.23;43.71
65227;BME280;51805;49.012;12.104;2023-02-26T00:14:26;97045.78;;;22.19;43.71
65227;BME280;51805;49.012;12.104;2023-02-26T00:19:42;97053.41;;;22.17;43.78
65227;BME280;51805;49.012;12.104;2023-02-26T00:22:08;97054.00;;;22.14;43.80
65227;BME280;51805;49.012;12.104;2023-02-26T00:24:33;97051.59;;;22.13;43.92
65227;BME280;51805;49.012;12.104;2023-02-26T00:26:58;97057.78;;;22.13;43.78
65227;BME280;51805;49.012;12.104;2023-02-26T00:29:23;97067.31;;;22.11;43.75
65227;BME280;51805;49.012;12.104;2023-02-26T00:31:49;97056.78;;;22.09;43.84
65227;BME280;51805;49.012;12.104;2023-02-26T00:34:14;97061.09;;;22.10;44.00
65227;BME280;51805;49.012;12.104;2023-02-26T00:36:49;97066.78;;;22.09;44.01
65227;BME280;51805;49.012;12.104;2023-02-26T00:42:00;97073.91;;;22.05;44.03
65227;BME280;51805;49.012;12.104;2023-02-26T00:44:25;97075.81;;;22.04;43.92
65227;BME280;51805;49.012;12.104;2023-02-26T00:50:08;97080.22;;;22.00;44.01
65227;BME280;51805;49.012;12.104;2023-02-26T00:52:14;97089.44;;;21.99;44.06
65227;BME280;51805;49.012;12.104;2023-02-26T00:54:42;97080.81;;;21.97;44.22
65227;BME280;51805;49.012;12.104;2023-02-26T00:57:07;97081.88;;;21.96;43.99
65227;BME280;51805;49.012;12.104;2023-02-26T00:59:32;97082.19;;;21.95;44.24
65227;BME280;51805;49.012;12.104;2023-02-26T01:01:57;97083.00;;;21.95;44.22
65227;BME280;51805;49.012;12.104;2023-02-26T01:04:23;97085.19;;;21.93;44.03
65227;BME280;51805;49.012;12.104;2023-02-26T01:06:50;97086.28;;;21.92;44.26
65227;BME280;51805;49.012;12.104;2023-02-26T01:09:25;97082.78;;;21.92;44.24
65227;BME280;51805;49.012;12.104;2023-02-26T01:11:51;97075.78;;;21.91;44.20
65227;BME280;51805;49.012;12.104;2023-02-26T01:14:17;97081.47;;;21.89;44.33
65227;BME280;51805;49.012;12.104;2023-02-26T01:22:12;97088.00;;;21.88;44.25
65227;BME280;51805;49.012;12.104;2023-02-26T01:24:39;97079.38;;;21.86;44.32
65227;BME280;51805;49.012;12.104;2023-02-26T01:27:04;97083.78;;;21.82;44.30
65227;BME280;51805;49.012;12.104;2023-02-26T01:29:30;97081.84;;;21.83;44.42
65227;BME280;51805;49.012;12.104;2023-02-26T01:32:06;97083.78;;;21.82;44.26
65227;BME280;51805;49.012;12.104;2023-02-26T01:37:07;97074.31;;;21.80;44.50
65227;BME280;51805;49.012;12.104;2023-02-26T01:39:36;97079.72;;;21.80;44.54
65227;BME280;51805;49.012;12.104;2023-02-26T01:42:14;97078.94;;;21.79;44.58
65227;BME280;51805;49.012;12.104;2023-02-26T01:44:41;97077.31;;;21.78;44.35
65227;BME280;51805;49.012;12.104;2023-02-26T01:47:10;97078.44;;;21.77;44.43
65227;BME280;51805;49.012;12.104;2023-02-26T01:49:39;97089.56;;;21.76;44.56
65227;BME280;51805;49.012;12.104;2023-02-26T01:52:04;97088.75;;;21.75;44.59
65227;BME280;51805;49.012;12.104;2023-02-26T01:54:31;97086.28;;;21.74;44.54
65227;BME280;51805;49.012;12.104;2023-02-26T01:57:01;97095.53;;;21.73;44.51
65227;BME280;51805;49.012;12.104;2023-02-26T01:59:28;97087.69;;;21.71;44.51
65227;BME280;51805;49.012;12.104;2023-02-26T02:01:55;97097.41;;;21.72;44.77
65227;BME280;51805;49.012;12.104;2023-02-26T02:04:20;97103.94;;;21.71;44.51
65227;BME280;51805;49.012;12.104;2023-02-26T02:06:47;97096.09;;;21.70;44.61
65227;BME280;51805;49.012;12.104;2023-02-26T02:09:12;97095.28;;;21.69;44.48
65227;BME280;51805;49.012;12.104;2023-02-26T02:14:29;97099.69;;;21.65;44.63
65227;BME280;51805;49.012;12.104;2023-02-26T02:17:06;97106.69;;;21.66;44.55
65227;BME280;51805;49.012;12.104;2023-02-26T02:33:01;97114.38;;;21.59;44.59
65227;BME280;51805;49.012;12.104;2023-02-26T02:35:40;97122.50;;;21.59;44.88
65227;BME280;51805;49.012;12.104;2023-02-26T02:38:10;97125.50;;;21.58;44.88
65227;BME280;51805;49.012;12.104;2023-02-26T02:40:39;97122.28;;;21.56;44.70
65227;BME280;51805;49.012;12.104;2023-02-26T02:43:12;97123.06;;;21.56;44.65
65227;BME280;51805;49.012;12.104;2023-02-26T02:48:11;97119.88;;;21.54;44.86
65227;BME280;51805;49.012;12.104;2023-02-26T02:50:38;97127.97;;;21.54;44.76
65227;BME280;51805;49.012;12.104;2023-02-26T02:55:54;97129.06;;;21.53;44.70
65227;BME280;51805;49.012;12.104;2023-02-26T02:58:24;97138.28;;;21.52;44.87
65227;BME280;51805;49.012;12.104;2023-02-26T03:00:51;97127.47;;;21.52;44.81
65227;BME280;51805;49.012;12.104;2023-02-26T03:03:20;97145.84;;;21.50;44.86
65227;BME280;51805;49.012;12.104;2023-02-26T03:05:48;97139.66;;;21.50;44.96
65227;BME280;51805;49.012;12.104;2023-02-26T03:08:15;97134.25;;;21.50;44.80
65227;BME280;51805;49.012;12.104;2023-02-26T03:10:41;97138.84;;;21.49;44.74
65227;BME280;51805;49.012;12.104;2023-02-26T03:13:13;97131.84;;;21.48;44.82
65227;BME280;51805;49.012;12.104;2023-02-26T03:15:43;97140.25;;;21.47;44.73
65227;BME280;51805;49.012;12.104;2023-02-26T03:18:21;97145.66;;;21.47;44.96
65227;BME280;51805;49.012;12.104;2023-02-26T03:20:57;97150.78;;;21.48;44.67
65227;BME280;51805;49.012;12.104;2023-02-26T03:23:45;97153.78;;;21.47;44.80
65227;BME280;51805;49.012;12.104;2023-02-26T03:26:23;97156.75;;;21.45;44.93
65227;BME280;51805;49.012;12.104;2023-02-26T03:28:53;97164.06;;;21.44;44.92
65227;BME280;51805;49.012;12.104;2023-02-26T03:31:24;97161.66;;;21.43;44.86
65227;BME280;51805;49.012;12.104;2023-02-26T03:36:32;97172.75;;;21.41;44.94
65227;BME280;51805;49.012;12.104;2023-02-26T03:39:04;97171.94;;;21.41;44.91
65227;BME280;51805;49.012;12.104;2023-02-26T03:44:17;97184.66;;;21.40;45.18
65227;BME280;51805;49.012;12.104;2023-02-26T03:46:47;97151.69;;;21.20;45.16
65227;BME280;51805;49.012;12.104;2023-02-26T03:49:16;97191.44;;;21.38;45.32
65227;BME280;51805;49.012;12.104;2023-02-26T03:51:44;97203.06;;;21.38;45.17
65227;BME280;51805;49.012;12.104;2023-02-26T03:54:15;97202.25;;;21.38;45.17
65227;BME280;51805;49.012;12.104;2023-02-26T03:56:44;97207.66;;;21.38;45.68
65227;BME280;51805;49.012;12.104;2023-02-26T03:59:10;97203.34;;;21.37;45.83
65227;BME280;51805;49.012;12.104;2023-02-26T04:01:40;97213.06;;;21.38;45.83
65227;BME280;51805;49.012;12.104;2023-02-26T04:04:11;97214.16;;;21.37;45.79
65227;BME280;51805;49.012;12.104;2023-02-26T04:06:38;97209.34;;;21.34;45.60
65227;BME280;51805;49.012;12.104;2023-02-26T04:09:03;97211.75;;;21.35;45.73
65227;BME280;51805;49.012;12.104;2023-02-26T04:11:29;97210.94;;;21.35;45.70
65227;BME280;51805;49.012;12.104;2023-02-26T04:13:54;97216.63;;;21.33;45.58
65227;BME280;51805;49.012;12.104;2023-02-26T04:16:20;97216.63;;;21.33;45.58
65227;BME280;51805;49.012;12.104;2023-02-26T04:18:45;97220.44;;;21.32;45.51
65227;BME280;51805;49.012;12.104;2023-02-26T04:21:11;97224.50;;;21.30;45.70
65227;BME280;51805;49.012;12.104;2023-02-26T04:23:36;97230.44;;;21.32;45.50
65227;BME280;51805;49.012;12.104;2023-02-26T04:26:01;97229.91;;;21.30;45.61
65227;BME280;51805;49.012;12.104;2023-02-26T04:28:27;97226.13;;;21.31;45.55
65227;BME280;51805;49.012;12.104;2023-02-26T04:30:52;97226.44;;;21.29;45.50
65227;BME280;51805;49.012;12.104;2023-02-26T04:33:17;97236.41;;;21.29;45.48
65227;BME280;51805;49.012;12.104;2023-02-26T04:35:42;97236.41;;;21.29;45.47
65227;BME280;51805;49.012;12.104;2023-02-26T04:38:07;97248.03;;;21.29;45.44
65227;BME280;51805;49.012;12.104;2023-02-26T04:40:32;97239.41;;;21.27;45.50
65227;BME280;51805;49.012;12.104;2023-02-26T04:42:58;97247.81;;;21.26;45.56
65227;BME280;51805;49.012;12.104;2023-02-26T04:45:23;97251.03;;;21.28;45.54
65227;BME280;51805;49.012;12.104;2023-02-26T04:47:48;97249.41;;;21.27;45.59
65227;BME280;51805;49.012;12.104;2023-02-26T04:50:13;97252.09;;;21.27;45.55
65227;BME280;51805;49.012;12.104;2023-02-26T04:52:38;97258.63;;;21.26;45.40
65227;BME280;51805;49.012;12.104;2023-02-26T04:55:03;97249.69;;;21.25;45.51
65227;BME280;51805;49.012;12.104;2023-02-26T04:57:29;97259.72;;;21.25;45.31
65227;BME280;51805;49.012;12.104;2023-02-26T04:59:54;97262.41;;;21.25;45.36
65227;BME280;51805;49.012;12.104;2023-02-26T05:02:19;97262.41;;;21.25;45.33
65227;BME280;51805;49.012;12.104;2023-02-26T05:04:44;97265.41;;;21.23;45.59
65227;BME280;51805;49.012;12.104;2023-02-26T05:07:09;97268.41;;;21.22;45.47
65227;BME280;51805;49.012;12.104;2023-02-26T05:09:34;97264.06;;;21.21;45.38
65227;BME280;51805;49.012;12.104;2023-02-26T05:12:00;97268.41;;;21.22;45.46
65227;BME280;51805;49.012;12.104;2023-02-26T05:14:25;97275.97;;;21.20;45.39
65227;BME280;51805;49.012;12.104;2023-02-26T05:16:50;97267.88;;;21.20;45.46
65227;BME280;51805;49.012;12.104;2023-02-26T05:19:15;97276.78;;;21.20;45.35
65227;BME280;51805;49.012;12.104;2023-02-26T05:21:40;97274.38;;;21.19;45.32
65227;BME280;51805;49.012;12.104;2023-02-26T05:24:05;97276.28;;;21.18;45.45
65227;BME280;51805;49.012;12.104;2023-02-26T05:26:31;97281.38;;;21.20;45.56
65227;BME280;51805;49.012;12.104;2023-02-26T05:28:56;97283.56;;;21.18;45.32
65227;BME280;51805;49.012;12.104;2023-02-26T05:31:21;97284.38;;;21.18;45.58
65227;BME280;51805;49.012;12.104;2023-02-26T05:33:46;97292.19;;;21.20;45.34
65227;BME280;51805;49.012;12.104;2023-02-26T05:36:11;97286.78;;;21.20;45.31
65227;BME280;51805;49.012;12.104;2023-02-26T05:38:36;97289.22;;;21.21;45.40
65227;BME280;51805;49.012;12.104;2023-02-26T05:41:01;97295.72;;;21.20;45.54
65227;BME280;51805;49.012;12.104;2023-02-26T05:43:26;97295.44;;;21.22;45.33
65227;BME280;51805;49.012;12.104;2023-02-26T05:45:52;97296.22;;;21.22;45.34
65227;BME280;51805;49.012;12.104;2023-02-26T05:48:17;97302.97;;;21.25;45.43
65227;BME280;51805;49.012;12.104;2023-02-26T05:50:42;97301.84;;;21.26;45.39
65227;BME280;51805;49.012;12.104;2023-02-26T05:53:08;97307.78;;;21.28;45.36
65227;BME280;51805;49.012;12.104;2023-02-26T05:55:33;97306.69;;;21.29;45.12
65227;BME280;51805;49.012;12.104;2023-02-26T05:57:58;97308.28;;;21.30;45.21
65227;BME280;51805;49.012;12.104;2023-02-26T06:00:23;97308.28;;;21.30;45.19
65227;BME280;51805;49.012;12.104;2023-02-26T06:02:49;97313.41;;;21.31;45.18
65227;BME280;51805;49.012;12.104;2023-02-26T06:05:14;97324.75;;;21.33;44.99
65227;BME280;51805;49.012;12.104;2023-02-26T06:07:39;97321.75;;;21.35;45.05
65227;BME280;51805;49.012;12.104;2023-02-26T06:10:05;97331.19;;;21.37;44.96
65227;BME280;51805;49.012;12.104;2023-02-26T06:12:30;97338.22;;;21.38;45.02
65227;BME280;51805;49.012;12.104;2023-02-26T06:14:55;97344.44;;;21.39;44.79
65227;BME280;51805;49.012;12.104;2023-02-26T06:17:21;97353.03;;;21.41;44.90
65227;BME280;51805;49.012;12.104;2023-02-26T06:19:46;97358.97;;;21.43;44.69
65227;BME280;51805;49.012;12.104;2023-02-26T06:22:11;97357.88;;;21.44;44.87
65227;BME280;51805;49.012;12.104;2023-02-26T06:24:36;97357.88;;;21.44;44.89
65227;BME280;51805;49.012;12.104;2023-02-26T06:27:01;97363.53;;;21.48;44.83
65227;BME280;51805;49.012;12.104;2023-02-26T06:29:27;97360.81;;;21.48;44.88
65227;BME280;51805;49.012;12.104;2023-02-26T06:31:52;97363.22;;;21.49;44.77
65227;BME280;51805;49.012;12.104;2023-02-26T06:34:17;97371.28;;;21.54;44.58
65227;BME280;51805;49.012;12.104;2023-02-26T06:36:42;97375.59;;;21.55;44.57
65227;BME280;51805;49.012;12.104;2023-02-26T06:39:08;97378.59;;;21.54;44.61
65227;BME280;51805;49.012;12.104;2023-02-26T06:41:33;97384.25;;;21.57;44.41
65227;BME280;51805;49.012;12.104;2023-02-26T06:43:58;97383.09;;;21.63;44.38
65227;BME280;51805;49.012;12.104;2023-02-26T06:46:23;97387.41;;;21.64;44.51
65227;BME280;51805;49.012;12.104;2023-02-26T06:48:48;97386.81;;;21.67;44.37
65227;BME280;51805;49.012;12.104;2023-02-26T06:51:14;97398.75;;;21.66;44.20
65227;BME280;51805;49.012;12.104;2023-02-26T06:53:39;97409.28;;;21.68;44.25
65227;BME280;51805;49.012;12.104;2023-02-26T06:56:04;97416.00;;;21.70;44.15
65227;BME280;51805;49.012;12.104;2023-02-26T06:58:29;97403.28;;;21.71;44.25
65227;BME280;51805;49.012;12.104;2023-02-26T07:00:54;97414.63;;;21.73;44.11
65227;BME280;51805;49.012;12.104;2023-02-26T07:03:20;97421.91;;;21.77;44.05
65227;BME280;51805;49.012;12.104;2023-02-26T07:05:45;97421.34;;;21.80;44.11
65227;BME280;51805;49.012;12.104;2023-02-26T07:08:10;97419.75;;;21.79;44.17
65227;BME280;51805;49.012;12.104;2023-02-26T07:10:36;97422.66;;;21.83;44.15
65227;BME280;51805;49.012;12.104;2023-02-26T07:13:01;97427.19;;;21.87;43.87
65227;BME280;51805;49.012;12.104;2023-02-26T07:15:26;97426.13;;;21.88;43.95
65227;BME280;51805;49.012;12.104;2023-02-26T07:17:51;97435.25;;;21.92;43.66
65227;BME280;51805;49.012;12.104;2023-02-26T07:20:17;97445.50;;;21.95;43.50
65227;BME280;51805;49.012;12.104;2023-02-26T07:22:44;97447.09;;;21.96;43.86
65227;BME280;51805;49.012;12.104;2023-02-26T07:25:10;97444.13;;;21.98;43.77
65227;BME280;51805;49.012;12.104;2023-02-26T07:27:35;97455.19;;;22.01;43.70
65227;BME280;51805;49.012;12.104;2023-02-26T07:30:00;97455.72;;;22.03;43.83
65227;BME280;51805;49.012;12.104;2023-02-26T07:32:26;97465.13;;;22.06;43.61
65227;BME280;51805;49.012;12.104;2023-02-26T07:34:51;97468.66;;;22.06;43.66
65227;BME280;51805;49.012;12.104;2023-02-26T07:37:16;97468.91;;;22.10;43.56
65227;BME280;51805;49.012;12.104;2023-02-26T07:39:41;97472.38;;;22.10;43.61
65227;BME280;51805;49.012;12.104;2023-02-26T07:42:06;97468.81;;;22.15;43.65
65227;BME280;51805;49.012;12.104;2023-02-26T07:44:32;97472.56;;;22.19;43.60
65227;BME280;51805;49.012;12.104;2023-02-26T07:46:57;97475.81;;;22.21;43.62
65227;BME280;51805;49.012;12.104;2023-02-26T07:49:22;97477.94;;;22.24;43.49
65227;BME280;51805;49.012;12.104;2023-02-26T07:51:47;97476.53;;;22.26;43.36
65227;BME280;51805;49.012;12.104;2023-02-26T07:54:12;97491.91;;;22.31;43.44
65227;BME280;51805;49.012;12.104;2023-02-26T07:56:38;97490.81;;;22.32;43.30
65227;BME280;51805;49.012;12.104;2023-02-26T07:59:03;97494.88;;;22.34;43.29
65227;BME280;51805;49.012;12.104;2023-02-26T08:01:28;97498.06;;;22.36;43.25
65227;BME280;51805;49.012;12.104;2023-02-26T08:03:54;97498.59;;;22.38;43.37
65227;BME280;51805;49.012;12.104;2023-02-26T08:06:19;97501.81;;;22.40;43.22
65227;BME280;51805;49.012;12.104;2023-02-26T08:08:44;97508.25;;;22.44;43.31
65227;BME280;51805;49.012;12.104;2023-02-26T08:11:09;97508.56;;;22.43;43.18
65227;BME280;51805;49.012;12.104;2023-02-26T08:13:34;97511.25;;;22.43;43.37
65227;BME280;51805;49.012;12.104;2023-02-26T08:15:59;97504.25;;;22.42;43.30
65227;BME280;51805;49.012;12.104;2023-02-26T08:18:24;97506.09;;;22.46;43.23
65227;BME280;51805;49.012;12.104;2023-02-26T08:20:50;97505.25;;;22.46;43.33
65227;BME280;51805;49.012;12.104;2023-02-26T08:23:15;97517.72;;;22.47;43.12
65227;BME280;51805;49.012;12.104;2023-02-26T08:25:40;97523.94;;;22.47;43.26
65227;BME280;51805;49.012;12.104;2023-02-26T08:28:05;97531.28;;;22.47;43.23
65227;BME280;51805;49.012;12.104;2023-02-26T08:30:30;97526.94;;;22.46;43.34
65227;BME280;51805;49.012;12.104;2023-02-26T08:32:56;97534.19;;;22.50;43.18
65227;BME280;51805;49.012;12.104;2023-02-26T08:35:21;97539.34;;;22.52;43.17
65227;BME280;51805;49.012;12.104;2023-02-26T08:37:46;97535.84;;;22.51;43.18
65227;BME280;51805;49.012;12.104;2023-02-26T08:40:11;97539.56;;;22.55;43.24
65227;BME280;51805;49.012;12.104;2023-02-26T08:42:37;97543.88;;;22.56;43.09
65227;BME280;51805;49.012;12.104;2023-02-26T08:45:02;97546.09;;;22.54;43.00
65227;BME280;51805;49.012;12.104;2023-02-26T08:47:27;97548.22;;;22.57;43.06
65227;BME280;51805;49.012;12.104;2023-02-26T08:49:52;97553.06;;;22.60;42.88
65227;BME280;51805;49.012;12.104;2023-02-26T08:52:18;97554.94;;;22.60;42.95
65227;BME280;51805;49.012;12.104;2023-02-26T08:54:43;97558.47;;;22.60;42.99
65227;BME280;51805;49.012;12.104;2023-02-26T08:57:08;97570.34;;;22.64;43.04
65227;BME280;51805;49.012;12.104;2023-02-26T08:59:34;97570.56;;;22.68;42.93
65227;BME280;51805;49.012;12.104;2023-02-26T09:01:59;97574.38;;;22.67;43.01
65227;BME280;51805;49.012;12.104;2023-02-26T09:04:24;97578.47;;;22.64;43.18
65227;BME280;51805;49.012;12.104;2023-02-26T09:06:49;97583.31;;;22.67;42.98
65227;BME280;51805;49.012;12.104;2023-02-26T09:09:14;97595.78;;;22.68;42.95
65227;BME280;51805;49.012;12.104;2023-02-26T09:11:39;97593.06;;;22.68;42.87
65227;BME280;51805;49.012;12.104;2023-02-26T09:14:05;97587.06;;;22.71;42.74
65227;BME280;51805;49.012;12.104;2023-02-26T09:16:30;97589.78;;;22.71;42.80
65227;BME280;51805;49.012;12.104;2023-02-26T09:18:55;97587.06;;;22.71;42.76
65227;BME280;51805;49.012;12.104;2023-02-26T09:21:21;97587.56;;;22.73;42.82
65227;BME280;51805;49.012;12.104;2023-02-26T09:23:46;97587.28;;;22.75;42.80
65227;BME280;51805;49.012;12.104;2023-02-26T09:26:11;97586.19;;;22.76;42.66
65227;BME280;51805;49.012;12.104;2023-02-26T09:28:36;97598.06;;;22.80;42.86
65227;BME280;51805;49.012;12.104;2023-02-26T09:31:04;97589.09;;;22.79;42.69
65227;BME280;51805;49.012;12.104;2023-02-26T09:33:29;97600.47;;;22.81;42.63
65227;BME280;51805;49.012;12.104;2023-02-26T09:35:55;97607.53;;;22.82;42.64
65227;BME280;51805;49.012;12.104;2023-02-26T09:38:20;97610.44;;;22.86;42.50
65227;BME280;51805;49.012;12.104;2023-02-26T09:40:55;97616.16;;;22.84;42.58
65227;BME280;51805;49.012;12.104;2023-02-26T09:45:47;97618.56;;;22.86;42.56
65227;BME280;51805;49.012;12.104;2023-02-26T09:48:14;97619.38;;;22.86;42.36
65227;BME280;51805;49.012;12.104;2023-02-26T09:55:37;97636.66;;;22.90;42.54
65227;BME280;51805;49.012;12.104;2023-02-26T09:58:03;97644.78;;;22.90;42.38
65227;BME280;51805;49.012;12.104;2023-02-26T10:00:35;97639.66;;;22.89;42.39
65227;BME280;51805;49.012;12.104;2023-02-26T10:05:47;97650.75;;;22.92;42.25
65227;BME280;51805;49.012;12.104;2023-02-26T10:08:18;97653.16;;;22.94;42.32
65227;BME280;51805;49.012;12.104;2023-02-26T10:16:08;97653.97;;;22.94;42.41
65227;BME280;51805;49.012;12.104;2023-02-26T10:18:37;97659.97;;;22.91;42.33
65227;BME280;51805;49.012;12.104;2023-02-26T10:24:14;97671.84;;;22.95;42.45
65227;BME280;51805;49.012;12.104;2023-02-26T10:26:44;97688.06;;;23.00;42.44
65227;BME280;51805;49.012;12.104;2023-02-26T10:34:35;97673.63;;;23.05;42.08
65227;BME280;51805;49.012;12.104;2023-02-26T10:39:31;97684.19;;;23.07;42.02
65227;BME280;51805;49.012;12.104;2023-02-26T10:41:57;97686.31;;;23.10;41.90
65227;BME280;51805;49.012;12.104;2023-02-26T10:44:27;97682.00;;;23.09;41.95
65227;BME280;51805;49.012;12.104;2023-02-26T10:49:46;97687.41;;;23.09;41.84
65227;BME280;51805;49.012;12.104;2023-02-26T10:52:14;97692.25;;;23.12;41.68
65227;BME280;51805;49.012;12.104;2023-02-26T10:57:20;97696.06;;;23.11;41.93
65227;BME280;51805;49.012;12.104;2023-02-26T10:59:47;97686.84;;;23.12;41.96
65227;BME280;51805;49.012;12.104;2023-02-26T11:04:52;97688.75;;;23.11;42.10
65227;BME280;51805;49.012;12.104;2023-02-26T11:07:17;97679.78;;;23.11;41.77
65227;BME280;51805;49.012;12.104;2023-02-26T11:09:43;97700.69;;;23.10;41.77
65227;BME280;51805;49.012;12.104;2023-02-26T11:14:34;97691.44;;;23.11;41.79
65227;BME280;51805;49.012;12.104;2023-02-26T11:17:02;97706.88;;;23.11;41.61
65227;BME280;51805;49.012;12.104;2023-02-26T11:19:32;97696.06;;;23.11;41.76
65227;BME280;51805;49.012;12.104;2023-02-26T11:21:59;97698.47;;;23.12;41.72
65227;BME280;51805;49.012;12.104;2023-02-26T11:26:57;97690.03;;;23.14;41.75
65227;BME280;51805;49.012;12.104;2023-02-26T11:29:23;97690.03;;;23.14;41.48
65227;BME280;51805;49.012;12.104;2023-02-26T11:31:50;97679.22;;;23.14;41.65
65227;BME280;51805;49.012;12.104;2023-02-26T11:34:15;97676.78;;;23.12;41.60
65227;BME280;51805;49.012;12.104;2023-02-26T11:36:45;97679.22;;;23.14;41.78
65227;BME280;51805;49.012;12.104;2023-02-26T11:42:02;97665.38;;;23.15;41.63
65227;BME280;51805;49.012;12.104;2023-02-26T11:44:38;97660.75;;;23.16;41.59
65227;BME280;51805;49.012;12.104;2023-02-26T11:47:09;97670.00;;;23.15;41.59
65227;BME280;51805;49.012;12.104;2023-02-26T11:49:35;97659.94;;;23.15;41.54
65227;BME280;51805;49.012;12.104;2023-02-26T11:52:14;97662.94;;;23.14;41.54
65227;BME280;51805;49.012;12.104;2023-02-26T11:54:40;97671.06;;;23.14;41.63
65227;BME280;51805;49.012;12.104;2023-02-26T11:57:06;97680.31;;;23.13;41.50
65227;BME280;51805;49.012;12.104;2023-02-26T11:59:31;97670.56;;;23.12;41.64
65227;BME280;51805;49.012;12.104;2023-02-26T12:02:00;97666.75;;;23.13;41.51
65227;BME280;51805;49.012;12.104;2023-02-26T12:04:25;97671.06;;;23.14;41.37
65227;BME280;51805;49.012;12.104;2023-02-26T12:06:51;97669.19;;;23.14;41.57
65227;BME280;51805;49.012;12.104;2023-02-26T12:09:17;97666.75;;;23.13;41.47
65227;BME280;51805;49.012;12.104;2023-02-26T12:19:35;97655.34;;;23.16;41.51
65227;BME280;51805;49.012;12.104;2023-02-26T12:28:10;97644.50;;;23.16;41.50
65227;BME280;51805;49.012;12.104;2023-02-26T12:38:27;97628.47;;;23.19;41.64
65227;BME280;51805;49.012;12.104;2023-02-26T12:43:32;97640.09;;;23.20;41.37
65227;BME280;51805;49.012;12.104;2023-02-26T12:46:10;97636.31;;;23.21;41.40
65227;BME280;51805;49.012;12.104;2023-02-26T12:48:52;97654.16;;;23.22;41.47
65227;BME280;51805;49.012;12.104;2023-02-26T13:02:08;97652.56;;;23.21;41.53
65227;BME280;51805;49.012;12.104;2023-02-26T13:04:44;97654.16;;;23.22;41.60
65227;BME280;51805;49.012;12.104;2023-02-26T13:10:18;97675.63;;;23.18;41.50
65227;BME280;51805;49.012;12.104;2023-02-26T13:12:48;97688.09;;;23.19;41.39
65227;BME280;51805;49.012;12.104;2023-02-26T13:23:22;97682.16;;;23.17;42.02
65227;BME280;51805;49.012;12.104;2023-02-26T13:25:48;97686.47;;;23.18;42.15
65227;BME280;51805;49.012;12.104;2023-02-26T13:28:37;97691.09;;;23.18;42.40
65227;BME280;51805;49.012;12.104;2023-02-26T13:31:00;97688.88;;;23.20;42.23
65227;BME280;51805;49.012;12.104;2023-02-26T13:33:29;97686.72;;;23.22;42.39
65227;BME280;51805;49.012;12.104;2023-02-26T13:35:55;97680.22;;;23.23;42.28
65227;BME280;51805;49.012;12.104;2023-02-26T13:46:17;97687.00;;;23.20;42.37
65227;BME280;51805;49.012;12.104;2023-02-26T13:49:00;97688.56;;;23.26;42.25
65227;BME280;51805;49.012;12.104;2023-02-26T13:51:36;97692.63;;;23.29;42.21
65227;BME280;51805;49.012;12.104;2023-02-26T13:54:07;97688.81;;;23.30;42.14
65227;BME280;51805;49.012;12.104;2023-02-26T14:01:46;97716.88;;;23.39;42.19
65227;BME280;51805;49.012;12.104;2023-02-26T14:06:45;97724.50;;;23.37;42.34
65227;BME280;51805;49.012;12.104;2023-02-26T14:11:56;97718.00;;;23.38;42.40
65227;BME280;51805;49.012;12.104;2023-02-26T14:14:23;97709.56;;;23.39;42.33
65227;BME280;51805;49.012;12.104;2023-02-26T14:19:40;97710.88;;;23.42;42.34
65227;BME280;51805;49.012;12.104;2023-02-26T14:29:55;97724.59;;;23.32;42.59
65227;BME280;51805;49.012;12.104;2023-02-26T14:32:31;97726.72;;;23.35;42.55
65227;BME280;51805;49.012;12.104;2023-02-26T14:35:10;97734.28;;;23.38;42.38
65227;BME280;51805;49.012;12.104;2023-02-26T14:37:36;97738.59;;;23.39;42.38
65227;BME280;51805;49.012;12.104;2023-02-26T14:40:05;97748.91;;;23.37;42.41
65227;BME280;51805;49.012;12.104;2023-02-26T14:42:33;97743.56;;;23.32;42.59
65227;BME280;51805;49.012;12.104;2023-02-26T14:45:21;97736.50;;;23.31;42.43
65227;BME280;51805;49.012;12.104;2023-02-26T14:47:45;97730.28;;;23.30;42.52
65227;BME280;51805;49.012;12.104;2023-02-26T14:50:13;97750.66;;;23.28;42.60
65227;BME280;51805;49.012;12.104;2023-02-26T14:52:45;97745.22;;;23.28;42.85
65227;BME280;51805;49.012;12.104;2023-02-26T15:05:43;97764.19;;;23.28;42.98
65227;BME280;51805;49.012;12.104;2023-02-26T15:11:02;97770.72;;;23.27;42.97
65227;BME280;51805;49.012;12.104;2023-02-26T15:24:11;97811.13;;;23.23;43.36
65227;BME280;51805;49.012;12.104;2023-02-26T15:26:39;97817.66;;;23.22;43.38
65227;BME280;51805;49.012;12.104;2023-02-26T15:29:06;97816.84;;;23.22;43.25
65227;BME280;51805;49.012;12.104;2023-02-26T15:31:40;97817.94;;;23.21;43.65
65227;BME280;51805;49.012;12.104;2023-02-26T15:34:05;97818.22;;;23.19;43.55
65227;BME280;51805;49.012;12.104;2023-02-26T15:36:34;97821.44;;;23.21;43.68
65227;BME280;51805;49.012;12.104;2023-02-26T15:39:00;97830.69;;;23.20;43.71
65227;BME280;51805;49.012;12.104;2023-02-26T15:41:27;97827.72;;;23.17;43.74
65227;BME280;51805;49.012;12.104;2023-02-26T15:43:54;97832.88;;;23.18;43.57
65227;BME280;51805;49.012;12.104;2023-02-26T15:46:22;97838.28;;;23.18;43.64
65227;BME280;51805;49.012;12.104;2023-02-26T15:48:50;97837.50;;;23.18;43.64
65227;BME280;51805;49.012;12.104;2023-02-26T15:51:16;97839.94;;;23.19;43.63
65227;BME280;51805;49.012;12.104;2023-02-26T15:53:46;97829.56;;;23.21;43.80
65227;BME280;51805;49.012;12.104;2023-02-26T15:56:17;97832.28;;;23.21;43.50